createdAt,value
2023-05-09T00:01:18.274Z,101810.58
2023-05-09T00:03:47.820Z,101813.95
2023-05-09T00:06:17.370Z,101810.71
2023-05-09T00:08:46.645Z,101802.89
2023-05-09T00:11:15.936Z,101804.47
2023-05-09T00:13:45.898Z,101798.41
2023-05-09T00:16:16.123Z,101804.56
2023-05-09T00:18:45.806Z,101801.44
2023-05-09T00:21:15.064Z,101797.86
2023-05-09T00:23:44.753Z,101791.97
2023-05-09T00:26:14.350Z,101790.44
2023-05-09T00:28:45.157Z,101786.47
2023-05-09T00:31:14.598Z,101786.33
2023-05-09T00:33:43.899Z,101784.16
2023-05-09T00:36:13.173Z,101778.39
2023-05-09T00:38:42.523Z,101774.09
2023-05-09T00:41:12.144Z,101770.12
2023-05-09T00:43:41.825Z,101771.18
2023-05-09T00:46:11.741Z,101765.20
2023-05-09T00:48:41.689Z,101766.95
2023-05-09T00:51:11.327Z,101750.59
2023-05-09T00:53:40.768Z,101749.73
2023-05-09T00:56:10.730Z,101746.27
2023-05-09T00:58:40.263Z,101741.80
2023-05-09T01:01:09.851Z,101745.42
2023-05-09T01:03:41.256Z,101741.27
2023-05-09T01:06:20.192Z,101733.25
2023-05-09T01:09:24.628Z,101737.27
2023-05-09T01:12:06.016Z,101734.38
2023-05-09T01:14:55.353Z,101731.86
2023-05-09T01:17:40.632Z,101724.05
2023-05-09T01:20:34.662Z,101717.43
2023-05-09T01:23:25.301Z,101714.66
2023-05-09T01:26:09.471Z,101710.00
2023-05-09T01:29:05.000Z,101705.91
2023-05-09T01:31:36.225Z,101696.30
2023-05-09T01:34:06.389Z,101685.98
2023-05-09T01:36:38.457Z,101681.37
2023-05-09T01:39:08.095Z,101683.75
2023-05-09T01:41:39.148Z,101680.98
2023-05-09T01:44:11.182Z,101688.84
2023-05-09T01:46:41.268Z,101686.27
2023-05-09T01:49:10.640Z,101689.69
2023-05-09T01:51:43.031Z,101685.72
2023-05-09T01:54:13.394Z,101675.13
2023-05-09T01:56:44.249Z,101674.55
2023-05-09T01:59:16.351Z,101674.88
2023-05-09T02:01:47.221Z,101668.27
2023-05-09T02:04:17.804Z,101673.30
2023-05-09T02:06:49.363Z,101670.17
2023-05-09T02:09:21.161Z,101667.87
2023-05-09T02:11:50.428Z,101666.81
2023-05-09T02:14:20.102Z,101673.56
2023-05-09T02:16:49.742Z,101668.53
2023-05-09T02:19:19.453Z,101671.69
2023-05-09T02:21:50.318Z,101669.03
2023-05-09T02:24:19.986Z,101665.20
2023-05-09T02:26:49.609Z,101662.94
2023-05-09T02:29:20.737Z,101664.74
2023-05-09T02:31:51.850Z,101663.20
2023-05-09T02:34:22.245Z,101653.70
2023-05-09T02:36:52.062Z,101647.80
2023-05-09T02:39:21.402Z,101646.22
2023-05-09T02:41:50.911Z,101640.34
2023-05-09T02:44:20.772Z,101637.83
2023-05-09T02:46:50.577Z,101635.17
2023-05-09T02:49:31.429Z,101630.86
2023-05-09T02:51:51.811Z,101632.64
2023-05-09T02:54:21.752Z,101629.62
2023-05-09T02:56:51.048Z,101625.78
2023-05-09T02:59:20.610Z,101619.64
2023-05-09T03:01:50.260Z,101617.58
2023-05-09T03:04:19.848Z,101614.80
2023-05-09T03:06:49.602Z,101614.00
2023-05-09T03:09:19.233Z,101608.11
2023-05-09T03:11:48.594Z,101612.08
2023-05-09T03:14:18.649Z,101604.27
2023-05-09T03:16:48.177Z,101600.77
2023-05-09T03:19:19.486Z,101601.62
2023-05-09T03:21:48.760Z,101600.75
2023-05-09T03:24:18.219Z,101599.19
2023-05-09T03:26:47.510Z,101594.61
2023-05-09T03:29:16.868Z,101587.47
2023-05-09T03:31:46.378Z,101584.50
2023-05-09T03:34:16.486Z,101582.13
2023-05-09T03:36:46.151Z,101582.59
2023-05-09T03:39:16.600Z,101585.48
2023-05-09T03:41:47.819Z,101582.83
2023-05-09T03:44:17.142Z,101578.47
2023-05-09T03:46:46.496Z,101574.62
2023-05-09T03:49:16.524Z,101571.98
2023-05-09T03:51:47.544Z,101566.55
2023-05-09T03:54:17.869Z,101568.86
2023-05-09T03:56:48.517Z,101553.93
2023-05-09T03:59:17.869Z,101554.17
2023-05-09T04:01:47.555Z,101554.72
2023-05-09T04:04:18.772Z,101555.84
2023-05-09T04:06:48.714Z,101560.73
2023-05-09T04:09:18.332Z,101559.98
2023-05-09T04:11:48.281Z,101551.80
2023-05-09T04:14:18.578Z,101540.61
2023-05-09T04:16:47.923Z,101533.28
2023-05-09T04:19:17.535Z,101541.22
2023-05-09T04:21:46.921Z,101545.30
2023-05-09T04:24:17.005Z,101537.63
2023-05-09T04:26:48.401Z,101532.66
2023-05-09T04:29:19.357Z,101533.01
2023-05-09T04:31:50.793Z,101530.02
2023-05-09T04:34:20.693Z,101531.65
2023-05-09T04:36:52.137Z,101533.95
2023-05-09T04:39:21.758Z,101531.52
2023-05-09T04:42:02.672Z,101522.05
2023-05-09T04:44:33.236Z,101517.46
2023-05-09T04:47:02.620Z,101524.01
2023-05-09T04:49:31.963Z,101514.61
2023-05-09T04:52:01.248Z,101516.30
2023-05-09T04:54:32.238Z,101510.45
2023-05-09T04:57:13.788Z,101509.84
2023-05-09T04:59:33.436Z,101502.84
2023-05-09T05:02:03.493Z,101501.19
2023-05-09T05:04:33.798Z,101499.16
2023-05-09T05:07:05.252Z,101494.91
2023-05-09T05:09:34.804Z,101490.67
2023-05-09T05:12:07.443Z,101489.11
2023-05-09T05:14:37.152Z,101492.17
2023-05-09T05:17:07.139Z,101480.39
2023-05-09T05:19:36.540Z,101480.59
2023-05-09T05:22:06.614Z,101478.36
2023-05-09T05:24:37.275Z,101471.13
2023-05-09T05:27:06.630Z,101477.11
2023-05-09T05:29:36.282Z,101479.69
2023-05-09T05:32:06.301Z,101470.73
2023-05-09T05:34:36.779Z,101468.02
2023-05-09T05:37:06.286Z,101463.61
2023-05-09T05:39:36.241Z,101460.26
2023-05-09T05:42:06.005Z,101460.87
2023-05-09T05:44:35.765Z,101456.22
2023-05-09T05:47:05.724Z,101455.17
2023-05-09T05:49:35.016Z,101462.87
2023-05-09T05:52:04.988Z,101460.73
2023-05-09T05:54:34.666Z,101463.98
2023-05-09T05:57:04.360Z,101458.22
2023-05-09T05:59:33.918Z,101456.39
2023-05-09T06:02:04.346Z,101452.69
2023-05-09T06:04:34.283Z,101453.94
2023-05-09T06:07:03.714Z,101455.13
2023-05-09T06:09:33.612Z,101447.40
2023-05-09T06:12:02.874Z,101443.63
2023-05-09T06:14:32.691Z,101446.98
2023-05-09T06:17:02.678Z,101439.39
2023-05-09T06:19:32.589Z,101443.36
2023-05-09T06:22:02.000Z,101437.46
2023-05-09T06:24:35.561Z,101438.68
2023-05-09T06:27:02.417Z,101442.89
2023-05-09T06:29:32.142Z,101437.09
2023-05-09T06:32:01.712Z,101435.42
2023-05-09T06:34:31.116Z,101438.07
2023-05-09T06:37:00.448Z,101425.73
2023-05-09T06:39:29.908Z,101431.39
2023-05-09T06:41:59.162Z,101427.42
2023-05-09T06:44:30.484Z,101430.54
2023-05-09T06:46:59.752Z,101428.38
2023-05-09T06:49:29.036Z,101419.05
2023-05-09T06:51:58.304Z,101421.11
2023-05-09T06:54:27.773Z,101419.99
2023-05-09T06:56:57.027Z,101418.77
2023-05-09T06:59:27.104Z,101418.40
2023-05-09T07:01:56.760Z,101411.85
2023-05-09T07:04:26.850Z,101409.41
2023-05-09T07:06:56.453Z,101404.22
2023-05-09T07:09:27.687Z,101405.89
2023-05-09T07:11:57.229Z,101394.35
2023-05-09T07:14:27.048Z,101397.17
2023-05-09T07:17:05.152Z,101397.00
2023-05-09T07:19:27.432Z,101387.84
2023-05-09T07:21:56.954Z,101389.87
2023-05-09T07:24:26.303Z,101382.24
2023-05-09T07:26:55.585Z,101375.30
2023-05-09T07:29:24.856Z,101376.06
2023-05-09T07:31:54.269Z,101375.08
2023-05-09T07:34:25.432Z,101372.78
2023-05-09T07:36:54.806Z,101367.58
2023-05-09T07:39:24.463Z,101370.02
2023-05-09T07:41:54.148Z,101363.26
2023-05-09T07:44:23.756Z,101366.00
2023-05-09T07:46:55.038Z,101366.13
2023-05-09T07:49:24.311Z,101363.27
2023-05-09T07:51:54.040Z,101359.52
2023-05-09T07:54:23.308Z,101357.55
2023-05-09T07:56:52.611Z,101353.39
2023-05-09T07:59:21.856Z,101343.62
2023-05-09T08:01:51.203Z,101342.16
2023-05-09T08:04:20.682Z,101339.67
2023-05-09T08:06:50.308Z,101328.94
2023-05-09T08:09:19.912Z,101331.31
2023-05-09T08:11:49.417Z,101326.01
2023-05-09T08:14:18.962Z,101326.06
2023-05-09T08:16:48.260Z,101313.96
2023-05-09T08:19:17.828Z,101309.57
2023-05-09T08:21:47.225Z,101311.99
2023-05-09T08:24:16.509Z,101307.55
2023-05-09T08:26:46.283Z,101302.63
2023-05-09T08:29:16.516Z,101302.73
2023-05-09T08:31:47.087Z,101294.79
2023-05-09T08:34:17.211Z,101286.70
2023-05-09T08:36:47.380Z,101290.06
2023-05-09T08:39:16.891Z,101287.08
2023-05-09T08:41:46.475Z,101289.72
2023-05-09T08:44:16.173Z,101282.20
2023-05-09T08:46:45.858Z,101284.91
2023-05-09T08:49:16.697Z,101284.20
2023-05-09T08:51:46.451Z,101278.34
2023-05-09T08:54:17.305Z,101278.01
2023-05-09T08:56:46.869Z,101272.43
2023-05-09T08:59:16.604Z,101274.80
2023-05-09T09:01:46.353Z,101267.70
2023-05-09T09:04:16.033Z,101265.28
2023-05-09T09:06:46.048Z,101264.77
2023-05-09T09:09:16.741Z,101260.80
2023-05-09T09:11:46.150Z,101263.45
2023-05-09T09:14:18.008Z,101260.52
2023-05-09T09:16:48.011Z,101262.34
2023-05-09T09:19:18.735Z,101262.73
2023-05-09T09:21:48.480Z,101257.12
2023-05-09T09:24:21.007Z,101259.00
2023-05-09T09:26:51.353Z,101249.78
2023-05-09T09:29:21.230Z,101249.36
2023-05-09T09:31:57.815Z,101239.73
2023-05-09T09:34:27.603Z,101244.48
2023-05-09T09:36:57.061Z,101241.83
2023-05-09T09:39:26.313Z,101232.50
2023-05-09T09:41:55.915Z,101239.23
2023-05-09T09:44:25.921Z,101236.53
2023-05-09T09:46:56.740Z,101240.30
2023-05-09T09:49:27.623Z,101236.33
2023-05-09T09:51:58.457Z,101233.31
2023-05-09T09:54:28.561Z,101238.89
2023-05-09T09:56:57.902Z,101233.39
2023-05-09T09:59:28.382Z,101225.73
2023-05-09T10:02:08.397Z,101224.89
2023-05-09T10:04:40.582Z,101224.60
2023-05-09T10:07:14.827Z,101222.72
2023-05-09T10:09:44.003Z,101217.55
2023-05-09T10:12:15.442Z,101216.17
2023-05-09T10:14:45.004Z,101212.27
2023-05-09T10:17:16.322Z,101215.89
2023-05-09T10:19:47.584Z,101210.59
2023-05-09T10:22:19.302Z,101213.41
2023-05-09T10:24:51.116Z,101203.63
2023-05-09T10:27:23.052Z,101205.39
2023-05-09T10:30:06.067Z,101208.16
2023-05-09T10:32:56.084Z,101207.97
2023-05-09T10:35:43.979Z,101201.34
2023-05-09T10:38:14.452Z,101196.53
2023-05-09T10:40:46.935Z,101197.56
2023-05-09T10:43:16.677Z,101192.89
2023-05-09T10:45:46.499Z,101188.86
2023-05-09T10:48:16.194Z,101179.39
2023-05-09T10:50:46.849Z,101184.88
2023-05-09T10:53:17.817Z,101176.38
2023-05-09T10:55:56.539Z,101171.79
2023-05-09T10:58:28.366Z,101171.97
2023-05-09T11:00:59.219Z,101171.38
2023-05-09T11:03:30.790Z,101167.66
2023-05-09T11:06:02.219Z,101166.52
2023-05-09T11:08:33.420Z,101163.98
2023-05-09T11:11:07.937Z,101166.39
2023-05-09T11:13:41.092Z,101166.31
2023-05-09T11:16:11.626Z,101159.88
2023-05-09T11:18:52.079Z,101154.09
2023-05-09T11:21:22.145Z,101154.75
2023-05-09T11:23:55.053Z,101152.11
2023-05-09T11:26:24.413Z,101147.77
2023-05-09T11:28:55.221Z,101146.73
2023-05-09T11:31:24.936Z,101146.36
2023-05-09T11:33:58.303Z,101138.12
2023-05-09T11:36:35.597Z,101140.34
2023-05-09T11:39:09.289Z,101139.78
2023-05-09T11:41:41.274Z,101135.81
2023-05-09T11:44:23.597Z,101131.80
2023-05-09T11:46:53.544Z,101127.07
2023-05-09T11:49:22.797Z,101126.59
2023-05-09T11:51:52.101Z,101118.36
2023-05-09T11:54:23.503Z,101115.30
2023-05-09T11:56:52.910Z,101110.75
2023-05-09T11:59:22.562Z,101112.08
2023-05-09T12:01:51.916Z,101105.19
2023-05-09T12:04:21.468Z,101110.36
2023-05-09T12:06:50.842Z,101104.55
2023-05-09T12:09:22.300Z,101098.59
2023-05-09T12:11:51.604Z,101099.34
2023-05-09T12:14:31.691Z,101097.87
2023-05-09T12:17:00.948Z,101096.39
2023-05-09T12:19:30.474Z,101094.86
2023-05-09T12:22:01.270Z,101098.37
2023-05-09T12:24:31.433Z,101092.73
2023-05-09T12:27:01.342Z,101095.66
2023-05-09T12:29:30.878Z,101093.90
2023-05-09T12:32:00.843Z,101090.70
2023-05-09T12:34:30.451Z,101090.92
2023-05-09T12:37:01.948Z,101095.73
2023-05-09T12:39:31.225Z,101085.66
2023-05-09T12:42:01.953Z,101082.88
2023-05-09T12:44:31.925Z,101084.30
2023-05-09T12:47:04.038Z,101081.58
2023-05-09T12:49:33.653Z,101080.54
2023-05-09T12:52:04.785Z,101079.15
2023-05-09T12:54:33.885Z,101074.45
2023-05-09T12:57:05.104Z,101075.03
2023-05-09T12:59:34.379Z,101072.96
2023-05-09T13:02:04.016Z,101069.86
2023-05-09T13:04:33.816Z,101070.83
2023-05-09T13:07:06.546Z,101067.55
2023-05-09T13:09:36.181Z,101064.94
2023-05-09T13:12:05.946Z,101061.66
2023-05-09T13:14:35.407Z,101060.75
2023-05-09T13:17:04.747Z,101061.95
2023-05-09T13:19:36.003Z,101057.02
2023-05-09T13:22:05.722Z,101058.19
2023-05-09T13:24:35.051Z,101062.45
2023-05-09T13:27:04.909Z,101057.86
2023-05-09T13:29:34.606Z,101055.05
2023-05-09T13:32:03.868Z,101050.54
2023-05-09T13:34:33.525Z,101047.33
2023-05-09T13:37:03.945Z,101042.11
2023-05-09T13:39:33.417Z,101046.81
2023-05-09T13:42:03.985Z,101039.92
2023-05-09T13:44:33.403Z,101045.34
2023-05-09T13:47:02.932Z,101045.22
2023-05-09T13:49:32.230Z,101043.44
2023-05-09T13:52:01.726Z,101042.41
2023-05-09T13:54:32.642Z,101039.80
2023-05-09T13:57:03.904Z,101040.37
2023-05-09T13:59:33.510Z,101035.10
2023-05-09T14:02:03.232Z,101036.13
2023-05-09T14:04:32.986Z,101044.42
2023-05-09T14:07:05.233Z,101030.33
2023-05-09T14:09:36.146Z,101032.09
2023-05-09T14:12:05.683Z,101028.12
2023-05-09T14:14:35.611Z,101026.15
2023-05-09T14:17:04.927Z,101017.20
2023-05-09T14:19:35.152Z,101015.67
2023-05-09T14:22:04.692Z,101018.21
2023-05-09T14:24:37.328Z,101018.88
2023-05-09T14:27:08.387Z,100985.87
2023-05-09T14:29:41.131Z,101013.58
2023-05-09T14:32:14.749Z,101006.30
2023-05-09T14:34:45.225Z,101004.35
2023-05-09T14:37:14.911Z,101005.64
2023-05-09T14:39:49.512Z,101000.38
2023-05-09T14:42:19.822Z,100997.56
2023-05-09T14:44:49.373Z,100993.30
2023-05-09T14:47:18.686Z,100989.71
2023-05-09T14:49:48.040Z,100986.98
2023-05-09T14:52:17.712Z,100986.30
2023-05-09T14:54:47.513Z,100984.56
2023-05-09T14:57:17.275Z,100983.13
2023-05-09T14:59:47.113Z,100987.28
2023-05-09T15:02:16.452Z,100979.16
2023-05-09T15:04:46.029Z,100972.69
2023-05-09T15:07:15.332Z,100971.33
2023-05-09T15:09:44.864Z,100970.01
2023-05-09T15:12:14.266Z,100969.11
2023-05-09T15:14:43.538Z,100962.43
2023-05-09T15:17:13.139Z,100967.06
2023-05-09T15:19:42.414Z,100968.41
2023-05-09T15:22:12.515Z,100968.23
2023-05-09T15:24:43.417Z,100966.10
2023-05-09T15:27:12.927Z,100964.11
2023-05-09T15:29:42.211Z,100964.05
2023-05-09T15:32:11.835Z,100963.75
2023-05-09T15:34:41.307Z,100961.25
2023-05-09T15:37:10.713Z,100972.59
2023-05-09T15:39:45.364Z,100967.20
2023-05-09T15:42:16.957Z,100964.84
2023-05-09T15:44:50.020Z,100962.59
2023-05-09T15:47:19.483Z,100962.30
2023-05-09T15:49:48.890Z,100955.11
2023-05-09T15:52:18.262Z,100957.02
2023-05-09T15:54:47.630Z,100958.38
2023-05-09T15:57:18.246Z,100956.43
2023-05-09T15:59:47.880Z,100951.98
2023-05-09T16:02:17.403Z,100949.37
2023-05-09T16:04:47.356Z,100946.29
2023-05-09T16:07:16.667Z,100945.52
2023-05-09T16:09:46.397Z,100944.52
2023-05-09T16:12:15.688Z,100939.67
2023-05-09T16:14:45.714Z,100941.08
2023-05-09T16:17:15.074Z,100939.13
2023-05-09T16:19:44.999Z,100936.04
2023-05-09T16:22:14.262Z,100947.95
2023-05-09T16:24:44.585Z,100942.95
2023-05-09T16:27:14.735Z,100939.28
2023-05-09T16:29:44.346Z,100933.11
2023-05-09T16:32:13.621Z,100934.20
2023-05-09T16:34:43.278Z,100934.44
2023-05-09T16:37:12.640Z,100926.02
2023-05-09T16:39:41.934Z,100927.64
2023-05-09T16:42:11.286Z,100930.31
2023-05-09T16:44:41.103Z,100920.31
2023-05-09T16:47:10.368Z,100927.14
2023-05-09T16:49:39.686Z,100924.58
2023-05-09T16:52:09.017Z,100917.78
2023-05-09T16:54:38.310Z,100912.97
2023-05-09T16:57:07.563Z,100913.52
2023-05-09T16:59:37.300Z,100912.48
2023-05-09T17:02:07.100Z,100906.84
2023-05-09T17:04:37.794Z,100907.14
2023-05-09T17:07:07.314Z,100906.47
2023-05-09T17:09:36.610Z,100907.28
2023-05-09T17:12:06.302Z,100905.15
2023-05-09T17:14:36.084Z,100903.23
2023-05-09T17:17:05.542Z,100903.27
2023-05-09T17:19:35.564Z,100896.95
2023-05-09T17:22:05.787Z,100905.00
2023-05-09T17:24:35.889Z,100908.45
2023-05-09T17:27:06.488Z,100899.20
2023-05-09T17:29:36.332Z,100900.04
2023-05-09T17:32:07.642Z,100903.31
2023-05-09T17:34:37.967Z,100905.15
2023-05-09T17:37:09.019Z,100902.59
2023-05-09T17:39:38.432Z,100905.23
2023-05-09T17:42:08.437Z,100905.23
2023-05-09T17:44:38.878Z,100907.58
2023-05-09T17:47:08.530Z,100902.95
2023-05-09T17:49:38.189Z,100905.08
2023-05-09T17:52:07.596Z,100898.69
2023-05-09T17:54:37.908Z,100901.96
2023-05-09T17:57:07.393Z,100897.66
2023-05-09T17:59:38.405Z,100899.80
2023-05-09T18:02:08.968Z,100896.48
2023-05-09T18:04:38.344Z,100896.93
2023-05-09T18:07:08.952Z,100904.91
2023-05-09T18:09:38.253Z,100903.48
2023-05-09T18:12:08.930Z,100896.53
2023-05-09T18:14:39.990Z,100905.83
2023-05-09T18:17:09.572Z,100905.28
2023-05-09T18:19:40.573Z,100903.15
2023-05-09T18:22:10.245Z,100900.43
2023-05-09T18:24:41.877Z,100897.45
2023-05-09T18:27:12.348Z,100889.45
2023-05-09T18:29:42.256Z,100898.27
2023-05-09T18:32:12.059Z,100898.41
2023-05-09T18:34:42.313Z,100899.73
2023-05-09T18:37:12.319Z,100897.75
2023-05-09T18:39:41.988Z,100903.66
2023-05-09T18:42:13.355Z,100900.54
2023-05-09T18:44:43.480Z,100908.61
2023-05-09T18:47:13.276Z,100909.86
2023-05-09T18:49:43.104Z,100907.52
2023-05-09T18:52:17.047Z,100907.18
2023-05-09T18:54:47.144Z,100909.64
2023-05-09T18:57:16.454Z,100916.31
2023-05-09T18:59:46.384Z,100910.69
2023-05-09T19:02:16.879Z,100908.34
2023-05-09T19:04:46.812Z,100904.38
2023-05-09T19:07:16.369Z,100905.33
2023-05-09T19:09:45.817Z,100910.88
2023-05-09T19:12:16.494Z,100911.23
2023-05-09T19:14:46.232Z,100903.52
2023-05-09T19:17:15.938Z,100913.14
2023-05-09T19:19:45.496Z,100911.95
2023-05-09T19:22:15.711Z,100915.92
2023-05-09T19:24:45.072Z,100918.20
2023-05-09T19:27:14.563Z,100921.35
2023-05-09T19:29:44.044Z,100922.16
2023-05-09T19:32:14.066Z,100921.35
2023-05-09T19:34:43.409Z,100921.61
2023-05-09T19:37:13.110Z,100919.95
2023-05-09T19:39:42.477Z,100926.55
2023-05-09T19:42:12.218Z,100930.66
2023-05-09T19:44:41.593Z,100924.53
2023-05-09T19:47:11.175Z,100928.86
2023-05-09T19:49:42.325Z,100924.61
2023-05-09T19:52:15.116Z,100930.23
2023-05-09T19:54:44.725Z,100940.47
2023-05-09T19:57:14.629Z,100941.42
2023-05-09T19:59:44.281Z,100942.83
2023-05-09T20:02:16.011Z,100942.20
2023-05-09T20:04:47.253Z,100944.98
2023-05-09T20:07:20.402Z,100950.13
2023-05-09T20:09:50.066Z,100942.20
2023-05-09T20:12:19.971Z,100933.98
2023-05-09T20:14:49.650Z,100940.31
2023-05-09T20:17:19.090Z,100942.33
2023-05-09T20:19:48.377Z,100944.02
2023-05-09T20:22:17.869Z,100949.84
2023-05-09T20:24:47.245Z,100944.41
2023-05-09T20:27:16.541Z,100942.39
2023-05-09T20:29:45.965Z,100937.45
2023-05-09T20:32:15.685Z,100941.27
2023-05-09T20:34:44.958Z,100946.16
2023-05-09T20:37:14.687Z,100941.01
2023-05-09T20:39:44.154Z,100940.31
2023-05-09T20:42:14.202Z,100941.23
2023-05-09T20:44:44.205Z,100941.92
2023-05-09T20:47:13.505Z,100937.67
2023-05-09T20:49:42.763Z,100944.97
2023-05-09T20:52:12.310Z,100932.31
2023-05-09T20:54:41.880Z,100935.58
2023-05-09T20:57:11.177Z,100935.52
2023-05-09T20:59:40.597Z,100937.80
2023-05-09T21:02:10.191Z,100935.52
2023-05-09T21:04:39.925Z,100938.20
2023-05-09T21:07:10.126Z,100940.98
2023-05-09T21:09:40.027Z,100935.22
2023-05-09T21:12:11.129Z,100936.55
2023-05-09T21:14:41.002Z,100939.38
2023-05-09T21:17:10.444Z,100938.56
2023-05-09T21:19:39.700Z,100933.42
2023-05-09T21:22:10.320Z,100929.23
2023-05-09T21:24:39.657Z,100924.36
2023-05-09T21:27:09.004Z,100919.41
2023-05-09T21:29:38.267Z,100923.33
2023-05-09T21:32:07.906Z,100923.33
2023-05-09T21:34:37.704Z,100923.77
2023-05-09T21:37:07.086Z,100918.81
2023-05-09T21:39:36.468Z,100920.61
2023-05-09T21:42:05.734Z,100917.63
2023-05-09T21:44:36.501Z,100916.31
2023-05-09T21:47:06.219Z,100910.33
2023-05-09T21:49:36.082Z,100906.17
2023-05-09T21:52:06.265Z,100913.77
2023-05-09T21:54:35.565Z,100914.70
2023-05-09T21:57:04.975Z,100915.34
2023-05-09T21:59:34.630Z,100913.66
2023-05-09T22:02:04.083Z,100904.78
2023-05-09T22:04:33.345Z,100889.73
2023-05-09T22:07:02.607Z,100895.81
2023-05-09T22:09:31.882Z,100898.09
2023-05-09T22:12:01.181Z,100907.85
2023-05-09T22:14:30.720Z,100907.85
2023-05-09T22:17:00.791Z,100898.61
2023-05-09T22:19:30.284Z,100896.58
2023-05-09T22:22:00.467Z,100899.52
2023-05-09T22:24:29.747Z,100904.80
2023-05-09T22:26:59.374Z,100905.64
2023-05-09T22:29:28.891Z,100902.86
2023-05-09T22:31:58.201Z,100899.03
2023-05-09T22:34:27.595Z,100896.50
2023-05-09T22:36:56.944Z,100900.69
2023-05-09T22:39:26.861Z,100900.47
2023-05-09T22:41:56.566Z,100906.04
2023-05-09T22:44:25.820Z,100905.75
2023-05-09T22:46:55.226Z,100906.74
2023-05-09T22:49:25.250Z,100909.67
2023-05-09T22:51:54.557Z,100910.94
2023-05-09T22:54:23.835Z,100911.23
2023-05-09T22:56:53.150Z,100909.54
2023-05-09T22:59:22.718Z,100904.55
2023-05-09T23:01:52.822Z,100899.41
2023-05-09T23:04:22.085Z,100903.03
2023-05-09T23:06:51.727Z,100908.31
2023-05-09T23:09:20.989Z,100905.11
2023-05-09T23:11:50.589Z,100904.08
2023-05-09T23:14:19.931Z,100904.16
2023-05-09T23:16:49.267Z,100904.83
2023-05-09T23:19:19.754Z,100900.12
2023-05-09T23:21:49.278Z,100899.22
2023-05-09T23:24:18.992Z,100907.09
2023-05-09T23:26:48.485Z,100899.09
2023-05-09T23:29:17.840Z,100900.83
2023-05-09T23:31:47.197Z,100897.42
2023-05-09T23:34:17.149Z,100903.83
2023-05-09T23:36:46.511Z,100899.78
2023-05-09T23:39:17.196Z,100902.08
2023-05-09T23:41:46.481Z,100902.98
2023-05-09T23:44:16.166Z,100901.37
2023-05-09T23:46:45.663Z,100903.73
2023-05-09T23:49:15.024Z,100904.44
2023-05-09T23:51:44.338Z,100905.84
2023-05-09T23:54:13.602Z,100903.20
2023-05-09T23:56:42.985Z,100904.39
2023-05-09T23:59:12.265Z,100905.20
